createdAt,value
2022-10-19T00:01:06.823Z,11.52
2022-10-19T00:03:34.874Z,11.65
2022-10-19T00:06:14.013Z,11.65
2022-10-19T00:08:41.093Z,11.72
2022-10-19T00:11:07.766Z,11.65
2022-10-19T00:13:34.915Z,11.57
2022-10-19T00:16:02.446Z,11.62
2022-10-19T00:18:28.921Z,11.57
2022-10-19T00:21:06.891Z,11.57
2022-10-19T00:23:33.934Z,11.58
2022-10-19T00:26:00.913Z,11.58
2022-10-19T00:28:27.857Z,11.52
2022-10-19T00:30:54.929Z,11.45
2022-10-19T00:33:21.820Z,11.35
2022-10-19T00:35:50.404Z,11.13
2022-10-19T00:38:18.532Z,11.18
2022-10-19T00:40:45.564Z,11.22
2022-10-19T00:43:21.530Z,11.25
2022-10-19T00:45:48.375Z,11.21
2022-10-19T00:48:22.065Z,11.30
2022-10-19T00:50:51.189Z,11.21
2022-10-19T00:53:17.693Z,11.21
2022-10-19T00:55:44.757Z,11.22
2022-10-19T00:58:11.455Z,11.23
2022-10-19T01:00:38.232Z,11.14
2022-10-19T01:03:05.830Z,11.06
2022-10-19T01:05:34.601Z,10.97
2022-10-19T01:08:01.629Z,10.95
2022-10-19T01:10:43.214Z,10.97
2022-10-19T01:13:30.006Z,11.08
2022-10-19T01:16:07.858Z,11.18
2022-10-19T01:18:44.395Z,11.21
2022-10-19T01:21:25.099Z,11.18
2022-10-19T01:24:25.335Z,11.22
2022-10-19T01:27:16.971Z,11.30
2022-10-19T01:30:07.293Z,10.87
2022-10-19T01:33:07.702Z,10.89
2022-10-19T01:35:53.288Z,11.02
2022-10-19T01:38:28.363Z,10.68
2022-10-19T01:41:07.346Z,10.70
2022-10-19T01:43:59.556Z,10.47
2022-10-19T01:46:39.239Z,10.45
2022-10-19T01:49:16.061Z,10.44
2022-10-19T01:51:49.443Z,10.55
2022-10-19T01:54:19.216Z,10.42
2022-10-19T01:56:48.429Z,10.43
2022-10-19T01:59:18.173Z,10.37
2022-10-19T02:01:47.265Z,10.41
2022-10-19T02:04:18.919Z,10.42
2022-10-19T02:06:45.940Z,10.36
2022-10-19T02:09:12.482Z,10.37
2022-10-19T02:11:39.072Z,10.39
2022-10-19T02:14:11.411Z,10.42
2022-10-19T02:16:55.075Z,10.46
2022-10-19T02:21:54.036Z,10.49
2022-10-19T02:24:20.599Z,10.50
2022-10-19T02:26:47.180Z,10.54
2022-10-19T02:29:15.399Z,10.54
2022-10-19T02:31:43.018Z,10.57
2022-10-19T02:34:10.326Z,10.56
2022-10-19T02:36:37.168Z,10.58
2022-10-19T02:39:04.349Z,10.60
2022-10-19T02:41:39.642Z,10.55
2022-10-19T02:44:14.973Z,10.56
2022-10-19T02:46:44.978Z,10.61
2022-10-19T02:49:13.216Z,10.64
2022-10-19T02:52:05.257Z,10.66
2022-10-19T02:54:32.104Z,10.65
2022-10-19T02:56:58.795Z,10.64
2022-10-19T02:59:26.111Z,10.66
2022-10-19T03:01:52.750Z,10.69
2022-10-19T03:04:19.278Z,10.70
2022-10-19T03:06:46.216Z,10.69
2022-10-19T03:09:12.717Z,10.69
2022-10-19T03:11:39.182Z,10.69
2022-10-19T03:14:05.753Z,10.69
2022-10-19T03:16:32.223Z,10.69
2022-10-19T03:18:58.675Z,10.68
2022-10-19T03:21:25.294Z,10.69
2022-10-19T03:23:51.754Z,10.68
2022-10-19T03:26:18.519Z,10.64
2022-10-19T03:28:45.099Z,10.63
2022-10-19T03:31:11.761Z,10.59
2022-10-19T03:33:38.465Z,10.59
2022-10-19T03:36:20.589Z,10.59
2022-10-19T03:38:49.352Z,10.59
2022-10-19T03:41:15.821Z,10.57
2022-10-19T03:43:42.535Z,10.61
2022-10-19T03:46:09.328Z,10.57
2022-10-19T03:48:36.215Z,10.57
2022-10-19T03:51:06.877Z,10.49
2022-10-19T03:53:33.966Z,10.48
2022-10-19T03:56:04.853Z,10.49
2022-10-19T03:58:33.704Z,10.48
2022-10-19T04:01:00.658Z,10.48
2022-10-19T04:03:27.421Z,10.47
2022-10-19T04:06:02.227Z,10.48
2022-10-19T04:08:28.687Z,10.47
2022-10-19T04:10:59.790Z,10.49
2022-10-19T04:13:26.301Z,10.48
2022-10-19T04:15:52.752Z,10.43
2022-10-19T04:18:19.224Z,10.39
2022-10-19T04:20:45.745Z,10.33
2022-10-19T04:23:12.249Z,10.23
2022-10-19T04:25:38.861Z,10.15
2022-10-19T04:28:05.530Z,10.14
2022-10-19T04:30:31.979Z,10.13
2022-10-19T04:32:58.532Z,10.12
2022-10-19T04:35:25.376Z,10.11
2022-10-19T04:37:51.852Z,10.04
2022-10-19T04:40:18.298Z,10.03
2022-10-19T04:42:44.824Z,10.03
2022-10-19T04:45:11.313Z,9.91
2022-10-19T04:47:37.797Z,9.75
2022-10-19T04:50:04.696Z,9.64
2022-10-19T04:52:31.169Z,9.43
2022-10-19T04:54:57.649Z,9.41
2022-10-19T04:57:24.211Z,9.47
2022-10-19T04:59:50.673Z,9.49
2022-10-19T05:02:17.156Z,9.53
2022-10-19T05:04:45.187Z,9.55
2022-10-19T05:07:11.773Z,9.57
2022-10-19T05:09:38.258Z,9.57
2022-10-19T05:12:04.968Z,9.47
2022-10-19T05:14:35.022Z,9.47
2022-10-19T05:17:03.251Z,9.42
2022-10-19T05:19:29.758Z,9.27
2022-10-19T05:21:56.257Z,9.24
2022-10-19T05:24:22.792Z,9.24
2022-10-19T05:26:49.525Z,9.13
2022-10-19T05:29:16.004Z,9.06
2022-10-19T05:31:42.606Z,9.13
2022-10-19T05:34:10.058Z,9.12
2022-10-19T05:36:40.203Z,9.13
2022-10-19T05:39:11.895Z,9.09
2022-10-19T05:41:38.441Z,9.14
2022-10-19T05:44:05.502Z,9.15
2022-10-19T05:46:33.141Z,9.25
2022-10-19T05:49:00.093Z,9.35
2022-10-19T05:51:27.974Z,9.38
2022-10-19T05:53:55.769Z,9.44
2022-10-19T05:56:27.316Z,9.44
2022-10-19T05:58:56.145Z,9.43
2022-10-19T06:01:22.963Z,9.46
2022-10-19T06:03:54.792Z,9.42
2022-10-19T06:06:22.709Z,9.43
2022-10-19T06:08:50.163Z,9.49
2022-10-19T06:11:19.903Z,9.44
2022-10-19T06:13:47.737Z,9.49
2022-10-19T06:16:16.266Z,9.50
2022-10-19T06:18:42.955Z,9.57
2022-10-19T06:21:15.152Z,9.68
2022-10-19T06:26:14.660Z,9.89
2022-10-19T06:28:43.744Z,10.03
2022-10-19T06:31:10.761Z,10.15
2022-10-19T06:33:39.748Z,10.25
2022-10-19T06:36:15.761Z,10.38
2022-10-19T06:38:43.312Z,10.43
2022-10-19T06:41:11.219Z,10.48
2022-10-19T06:43:38.094Z,10.50
2022-10-19T06:46:10.962Z,10.54
2022-10-19T06:48:38.458Z,10.56
2022-10-19T06:51:06.644Z,10.61
2022-10-19T06:53:34.433Z,10.69
2022-10-19T06:56:02.998Z,10.66
2022-10-19T06:58:29.836Z,10.61
2022-10-19T07:01:00.648Z,10.56
2022-10-19T07:03:28.756Z,10.60
2022-10-19T07:05:56.927Z,10.66
2022-10-19T07:08:24.216Z,10.66
2022-10-19T07:10:56.086Z,10.67
2022-10-19T07:13:22.909Z,10.71
2022-10-19T07:15:49.545Z,10.75
2022-10-19T07:18:16.140Z,10.75
2022-10-19T07:20:42.607Z,10.78
2022-10-19T07:23:09.075Z,10.90
2022-10-19T07:25:36.339Z,11.02
2022-10-19T07:28:02.888Z,11.08
2022-10-19T07:30:29.392Z,11.32
2022-10-19T07:32:55.907Z,11.52
2022-10-19T07:35:22.389Z,11.49
2022-10-19T07:37:48.834Z,11.28
2022-10-19T07:40:15.394Z,11.24
2022-10-19T07:42:41.853Z,11.22
2022-10-19T07:45:08.608Z,11.29
2022-10-19T07:47:35.468Z,11.43
2022-10-19T07:50:02.127Z,11.57
2022-10-19T07:52:30.760Z,11.78
2022-10-19T07:54:59.656Z,11.79
2022-10-19T07:57:26.915Z,11.78
2022-10-19T07:59:53.380Z,11.84
2022-10-19T08:02:19.958Z,11.77
2022-10-19T08:05:00.700Z,11.77
2022-10-19T08:07:29.628Z,11.77
2022-10-19T08:09:56.281Z,11.81
2022-10-19T08:12:22.845Z,11.86
2022-10-19T08:14:49.415Z,11.87
2022-10-19T08:17:15.909Z,11.97
2022-10-19T08:19:42.362Z,12.09
2022-10-19T08:22:09.366Z,12.17
2022-10-19T08:24:35.843Z,12.10
2022-10-19T08:27:02.307Z,12.10
2022-10-19T08:29:30.705Z,12.19
2022-10-19T08:31:59.470Z,12.21
2022-10-19T08:34:26.172Z,12.22
2022-10-19T08:36:52.742Z,12.13
2022-10-19T08:39:19.291Z,12.13
2022-10-19T08:42:01.164Z,12.04
2022-10-19T08:45:04.852Z,11.94
2022-10-19T08:47:40.396Z,11.78
2022-10-19T08:50:23.646Z,11.78
2022-10-19T08:53:01.877Z,11.72
2022-10-19T08:55:39.687Z,11.67
2022-10-19T08:58:43.640Z,11.55
2022-10-19T09:01:10.052Z,11.52
2022-10-19T09:04:07.399Z,11.51
2022-10-19T09:07:01.548Z,11.51
2022-10-19T09:09:31.731Z,11.71
2022-10-19T09:12:06.796Z,11.80
2022-10-19T09:14:44.002Z,11.90
2022-10-19T09:17:14.046Z,11.96
2022-10-19T09:19:40.535Z,12.06
2022-10-19T09:22:21.087Z,12.34
2022-10-19T09:24:51.901Z,12.67
2022-10-19T09:27:26.911Z,13.02
2022-10-19T09:29:58.522Z,13.47
2022-10-19T09:32:35.831Z,13.89
2022-10-19T09:35:18.231Z,14.21
2022-10-19T09:37:51.172Z,14.47
2022-10-19T09:40:23.080Z,14.37
2022-10-19T09:42:49.860Z,14.18
2022-10-19T09:45:36.266Z,14.11
2022-10-19T09:48:12.783Z,13.99
2022-10-19T09:50:43.955Z,14.05
2022-10-19T09:53:19.230Z,13.94
2022-10-19T09:55:57.635Z,13.76
2022-10-19T09:58:29.174Z,13.55
2022-10-19T10:00:59.211Z,13.53
2022-10-19T10:03:30.599Z,13.45
2022-10-19T10:06:07.534Z,13.35
2022-10-19T10:08:39.148Z,13.16
2022-10-19T10:11:13.100Z,12.83
2022-10-19T10:13:42.828Z,12.64
2022-10-19T10:16:14.256Z,12.61
2022-10-19T10:18:59.616Z,12.92
2022-10-19T10:21:31.705Z,13.07
2022-10-19T10:24:17.606Z,13.43
2022-10-19T10:26:50.412Z,13.63
2022-10-19T10:29:20.397Z,13.74
2022-10-19T10:31:56.094Z,13.74
2022-10-19T10:34:38.784Z,13.89
2022-10-19T10:37:43.821Z,14.02
2022-10-19T10:40:26.623Z,13.92
2022-10-19T10:42:56.463Z,13.70
2022-10-19T10:45:45.881Z,13.49
2022-10-19T10:48:17.378Z,13.50
2022-10-19T10:50:44.736Z,13.63
2022-10-19T10:53:36.320Z,13.85
2022-10-19T10:56:05.391Z,14.07
2022-10-19T10:58:41.547Z,14.10
2022-10-19T11:01:18.738Z,14.03
2022-10-19T11:03:52.875Z,14.07
2022-10-19T11:09:10.367Z,13.91
2022-10-19T11:11:42.688Z,13.78
2022-10-19T11:14:43.928Z,13.70
2022-10-19T11:17:39.213Z,13.58
2022-10-19T11:20:07.549Z,13.60
2022-10-19T11:23:02.156Z,13.73
2022-10-19T11:25:57.969Z,13.90
2022-10-19T11:28:33.320Z,14.06
2022-10-19T11:31:06.950Z,14.08
2022-10-19T11:33:39.399Z,13.87
2022-10-19T11:36:47.687Z,13.66
2022-10-19T11:39:43.539Z,13.46
2022-10-19T11:42:34.556Z,13.31
2022-10-19T11:45:31.690Z,13.11
2022-10-19T11:48:39.304Z,12.98
2022-10-19T11:51:21.472Z,12.54
2022-10-19T11:53:57.494Z,12.26
2022-10-19T11:56:39.217Z,11.98
2022-10-19T11:59:28.512Z,11.85
2022-10-19T12:02:31.280Z,11.64
2022-10-19T12:05:03.395Z,11.46
2022-10-19T12:08:00.261Z,11.44
2022-10-19T12:10:32.797Z,11.52
2022-10-19T12:13:04.502Z,11.71
2022-10-19T12:15:38.147Z,11.95
2022-10-19T12:18:33.942Z,12.08
2022-10-19T12:21:04.504Z,12.19
2022-10-19T12:23:44.033Z,12.30
2022-10-19T12:26:15.735Z,12.29
2022-10-19T12:28:48.965Z,12.06
2022-10-19T12:31:17.057Z,11.96
2022-10-19T12:34:05.023Z,11.71
2022-10-19T12:36:54.222Z,11.54
2022-10-19T12:39:30.732Z,11.55
2022-10-19T12:42:24.868Z,11.50
2022-10-19T12:45:23.481Z,11.55
2022-10-19T12:48:08.354Z,11.46
2022-10-19T12:50:50.195Z,11.28
2022-10-19T12:56:02.364Z,10.89
2022-10-19T12:58:35.155Z,10.69
2022-10-19T13:01:04.582Z,10.51
2022-10-19T13:03:39.991Z,10.35
2022-10-19T13:06:19.403Z,10.12
2022-10-19T13:08:57.491Z,10.15
2022-10-19T13:11:24.094Z,10.15
2022-10-19T13:13:58.321Z,10.27
2022-10-19T13:16:37.053Z,10.45
2022-10-19T13:19:12.847Z,10.62
2022-10-19T13:22:00.974Z,10.85
2022-10-19T13:24:34.149Z,10.98
2022-10-19T13:27:03.583Z,11.08
2022-10-19T13:29:39.510Z,11.10
2022-10-19T13:32:35.098Z,11.02
2022-10-19T13:35:23.834Z,10.90
2022-10-19T13:38:24.541Z,10.70
2022-10-19T13:40:51.070Z,10.53
2022-10-19T13:43:20.235Z,10.32
2022-10-19T13:46:10.613Z,10.08
2022-10-19T13:49:00.670Z,9.83
2022-10-19T13:51:42.083Z,9.65
2022-10-19T13:54:17.620Z,9.62
2022-10-19T13:56:47.799Z,9.83
2022-10-19T14:00:00.109Z,9.85
2022-10-19T14:02:59.632Z,9.79
2022-10-19T14:05:29.241Z,9.75
2022-10-19T14:08:33.952Z,9.73
2022-10-19T14:11:11.700Z,9.77
2022-10-19T14:13:38.232Z,9.82
2022-10-19T14:16:05.070Z,9.85
2022-10-19T14:18:34.506Z,9.83
2022-10-19T14:21:09.403Z,9.81
2022-10-19T14:23:40.008Z,9.82
2022-10-19T14:26:16.733Z,9.85
2022-10-19T14:28:43.679Z,9.89
2022-10-19T14:31:19.737Z,9.91
2022-10-19T14:33:50.195Z,9.94
2022-10-19T14:36:20.986Z,9.93
2022-10-19T14:38:50.255Z,9.91
2022-10-19T14:41:28.889Z,9.91
2022-10-19T14:43:59.905Z,9.91
2022-10-19T14:46:31.563Z,9.91
2022-10-19T14:49:03.487Z,9.93
2022-10-19T14:51:44.167Z,9.97
2022-10-19T14:54:40.180Z,9.95
2022-10-19T14:57:29.027Z,9.94
2022-10-19T15:00:03.062Z,9.96
2022-10-19T15:02:35.714Z,9.97
2022-10-19T15:05:05.348Z,9.96
2022-10-19T15:07:43.036Z,9.98
2022-10-19T15:10:26.091Z,9.88
2022-10-19T15:13:04.463Z,9.93
2022-10-19T15:15:33.926Z,9.97
2022-10-19T15:18:00.478Z,9.95
2022-10-19T15:20:44.039Z,9.99
2022-10-19T15:23:39.684Z,9.96
2022-10-19T15:26:20.655Z,9.96
2022-10-19T15:28:48.492Z,9.91
2022-10-19T15:31:26.771Z,9.87
2022-10-19T15:33:55.901Z,9.89
2022-10-19T15:36:24.206Z,9.87
2022-10-19T15:39:18.214Z,9.86
2022-10-19T15:41:50.711Z,9.86
2022-10-19T15:44:40.504Z,9.89
2022-10-19T15:47:20.540Z,9.88
2022-10-19T15:49:56.367Z,9.84
2022-10-19T15:52:27.743Z,9.84
2022-10-19T15:54:56.506Z,9.86
2022-10-19T15:57:27.871Z,9.89
2022-10-19T15:59:56.288Z,9.88
2022-10-19T16:02:23.132Z,9.84
2022-10-19T16:04:49.708Z,9.74
2022-10-19T16:07:22.076Z,9.74
2022-10-19T16:09:48.545Z,9.73
2022-10-19T16:12:15.096Z,9.74
2022-10-19T16:14:41.573Z,9.78
2022-10-19T16:17:11.242Z,9.80
2022-10-19T16:19:37.810Z,9.81
2022-10-19T16:22:04.492Z,9.84
2022-10-19T16:24:30.959Z,9.84
2022-10-19T16:26:57.564Z,9.87
2022-10-19T16:29:28.160Z,9.91
2022-10-19T16:31:55.724Z,9.98
2022-10-19T16:34:22.464Z,9.99
2022-10-19T16:36:49.068Z,10.00
2022-10-19T16:39:15.551Z,9.99
2022-10-19T16:41:44.108Z,10.00
2022-10-19T16:44:12.094Z,10.01
2022-10-19T16:46:39.055Z,10.04
2022-10-19T16:49:05.707Z,10.07
2022-10-19T16:51:42.094Z,10.04
2022-10-19T16:54:10.871Z,10.02
2022-10-19T16:56:42.083Z,9.87
2022-10-19T16:59:11.228Z,9.78
2022-10-19T17:01:37.922Z,9.75
2022-10-19T17:04:04.461Z,9.71
2022-10-19T17:06:30.984Z,9.74
2022-10-19T17:11:44.839Z,9.40
2022-10-19T17:14:12.720Z,9.29
2022-10-19T17:16:40.019Z,9.15
2022-10-19T17:19:08.380Z,9.15
2022-10-19T17:21:36.921Z,9.11
2022-10-19T17:24:04.637Z,9.04
2022-10-19T17:26:40.321Z,8.97
2022-10-19T17:29:07.461Z,8.92
2022-10-19T17:31:34.673Z,8.84
2022-10-19T17:34:01.821Z,8.81
2022-10-19T17:36:30.847Z,8.78
2022-10-19T17:39:00.316Z,8.77
2022-10-19T17:41:27.425Z,8.84
2022-10-19T17:43:54.602Z,8.77
2022-10-19T17:46:26.626Z,8.72
2022-10-19T17:48:53.135Z,8.70
2022-10-19T17:51:22.303Z,8.68
2022-10-19T17:53:49.111Z,8.70
2022-10-19T17:56:18.192Z,8.71
2022-10-19T17:58:45.272Z,8.67
2022-10-19T18:01:12.257Z,8.69
2022-10-19T18:03:39.571Z,8.60
2022-10-19T18:06:09.641Z,8.61
2022-10-19T18:08:40.850Z,8.57
2022-10-19T18:11:10.213Z,8.38
2022-10-19T18:16:11.973Z,8.42
2022-10-19T18:18:40.316Z,8.29
2022-10-19T18:21:13.892Z,8.32
2022-10-19T18:23:41.155Z,8.28
2022-10-19T18:26:10.311Z,8.25
2022-10-19T18:28:36.984Z,8.20
2022-10-19T18:31:18.498Z,8.25
2022-10-19T18:33:46.205Z,8.18
2022-10-19T18:36:12.724Z,8.23
2022-10-19T18:38:39.595Z,8.21
2022-10-19T18:41:11.348Z,8.26
2022-10-19T18:43:39.730Z,8.31
2022-10-19T18:46:07.591Z,8.31
2022-10-19T18:48:36.919Z,8.21
2022-10-19T18:51:07.721Z,8.24
2022-10-19T18:53:35.081Z,8.11
2022-10-19T18:56:07.873Z,8.19
2022-10-19T18:58:35.260Z,8.13
2022-10-19T19:01:05.483Z,8.07
2022-10-19T19:03:32.608Z,8.02
2022-10-19T19:06:04.118Z,8.04
2022-10-19T19:08:31.542Z,8.08
2022-10-19T19:11:09.627Z,8.09
2022-10-19T19:13:36.093Z,8.06
2022-10-19T19:16:02.548Z,8.09
2022-10-19T19:18:29.150Z,7.99
2022-10-19T19:20:55.627Z,7.98
2022-10-19T19:23:22.106Z,7.97
2022-10-19T19:25:48.611Z,7.97
2022-10-19T19:28:15.330Z,7.85
2022-10-19T19:30:43.410Z,7.84
2022-10-19T19:33:10.049Z,7.80
2022-10-19T19:35:45.974Z,7.73
2022-10-19T19:38:13.883Z,7.71
2022-10-19T19:40:46.078Z,7.81
2022-10-19T19:43:15.034Z,7.67
2022-10-19T19:45:42.930Z,7.62
2022-10-19T19:48:10.681Z,7.53
2022-10-19T19:50:38.190Z,7.61
2022-10-19T19:53:05.078Z,7.49
2022-10-19T19:55:38.109Z,7.47
2022-10-19T19:58:05.768Z,7.43
2022-10-19T20:00:32.515Z,7.46
2022-10-19T20:02:59.256Z,7.42
2022-10-19T20:05:26.890Z,7.48
2022-10-19T20:07:53.344Z,7.46
2022-10-19T20:10:19.880Z,7.45
2022-10-19T20:12:47.273Z,7.45
2022-10-19T20:15:16.050Z,7.41
2022-10-19T20:17:42.829Z,7.35
2022-10-19T20:20:11.363Z,7.38
2022-10-19T20:22:39.020Z,7.40
2022-10-19T20:25:06.420Z,7.48
2022-10-19T20:27:36.485Z,7.46
2022-10-19T20:30:04.176Z,7.51
2022-10-19T20:32:31.200Z,7.45
2022-10-19T20:34:57.925Z,7.44
2022-10-19T20:37:24.528Z,7.44
2022-10-19T20:39:51.027Z,7.56
2022-10-19T20:42:19.098Z,7.42
2022-10-19T20:44:45.563Z,7.37
2022-10-19T20:47:12.039Z,7.39
2022-10-19T20:49:38.580Z,7.47
2022-10-19T20:52:05.060Z,7.44
2022-10-19T20:54:31.697Z,7.36
2022-10-19T20:56:58.469Z,7.35
2022-10-19T20:59:25.760Z,7.34
2022-10-19T21:01:54.189Z,7.39
2022-10-19T21:04:21.323Z,7.37
2022-10-19T21:06:49.973Z,7.26
2022-10-19T21:09:21.751Z,7.28
2022-10-19T21:11:49.918Z,7.36
2022-10-19T21:14:25.456Z,7.30
2022-10-19T21:16:55.941Z,7.29
2022-10-19T21:19:24.194Z,7.43
2022-10-19T21:21:57.320Z,7.32
2022-10-19T21:24:30.537Z,7.23
2022-10-19T21:26:56.999Z,7.32
2022-10-19T21:29:23.520Z,7.25
2022-10-19T21:31:52.080Z,7.16
2022-10-19T21:34:25.056Z,7.33
2022-10-19T21:36:52.397Z,7.23
2022-10-19T21:39:19.517Z,7.32
2022-10-19T21:41:46.868Z,7.40
2022-10-19T21:44:15.302Z,7.35
2022-10-19T21:46:42.258Z,7.25
2022-10-19T21:49:11.160Z,7.34
2022-10-19T21:51:42.342Z,7.36
2022-10-19T21:54:13.175Z,7.48
2022-10-19T21:56:40.092Z,7.41
2022-10-19T21:59:06.744Z,7.40
2022-10-19T22:01:37.239Z,7.41
2022-10-19T22:04:10.868Z,7.52
2022-10-19T22:06:37.417Z,7.41
2022-10-19T22:09:06.372Z,7.45
2022-10-19T22:11:33.609Z,7.49
2022-10-19T22:14:02.878Z,7.39
2022-10-19T22:16:30.035Z,7.46
2022-10-19T22:18:57.894Z,7.47
2022-10-19T22:21:27.458Z,7.42
2022-10-19T22:23:56.573Z,7.45
2022-10-19T22:26:25.728Z,7.45
2022-10-19T22:28:52.698Z,7.45
2022-10-19T22:31:19.581Z,7.39
2022-10-19T22:33:46.218Z,7.36
2022-10-19T22:36:13.139Z,7.37
2022-10-19T22:38:40.584Z,7.38
2022-10-19T22:41:07.258Z,7.38
2022-10-19T22:43:33.761Z,7.50
2022-10-19T22:46:00.318Z,7.39
2022-10-19T22:48:26.885Z,7.36
2022-10-19T22:50:54.064Z,7.38
2022-10-19T22:53:23.599Z,7.27
2022-10-19T22:55:50.550Z,7.31
2022-10-19T22:58:17.776Z,7.19
2022-10-19T23:00:44.346Z,7.25
2022-10-19T23:03:11.018Z,7.14
2022-10-19T23:05:37.499Z,7.11
2022-10-19T23:08:04.155Z,7.10
2022-10-19T23:10:30.818Z,7.16
2022-10-19T23:12:57.309Z,7.11
2022-10-19T23:15:23.813Z,7.14
2022-10-19T23:17:50.513Z,7.15
2022-10-19T23:20:17.225Z,7.20
2022-10-19T23:22:43.771Z,7.08
2022-10-19T23:25:10.380Z,7.12
2022-10-19T23:27:37.192Z,7.11
2022-10-19T23:30:04.627Z,7.05
2022-10-19T23:32:31.308Z,6.97
2022-10-19T23:34:58.147Z,7.06
2022-10-19T23:37:24.647Z,7.12
2022-10-19T23:39:51.284Z,7.04
2022-10-19T23:42:17.808Z,6.99
2022-10-19T23:44:44.390Z,7.00
2022-10-19T23:47:10.978Z,7.01
2022-10-19T23:49:37.464Z,6.92
2022-10-19T23:52:04.123Z,6.96
2022-10-19T23:54:30.762Z,6.91
2022-10-19T23:56:57.349Z,6.99
2022-10-19T23:59:23.950Z,6.93
